sensor_id;sensor_type;location;lat;lon;timestamp;P1;durP1;ratioP1;P2;durP2;ratioP2
65581;SDS011;52231;40.090;18.348;2023-07-09T00:04:46;13.00;;;6.40;;
65581;SDS011;52231;40.090;18.348;2023-07-09T00:09:51;12.23;;;6.20;;
65581;SDS011;52231;40.090;18.348;2023-07-09T00:12:19;13.80;;;6.10;;
65581;SDS011;52231;40.090;18.348;2023-07-09T00:14:48;12.35;;;6.13;;
65581;SDS011;52231;40.090;18.348;2023-07-09T00:19:54;12.25;;;6.00;;
65581;SDS011;52231;40.090;18.348;2023-07-09T00:24:50;11.88;;;5.78;;
65581;SDS011;52231;40.090;18.348;2023-07-09T00:27:19;15.32;;;6.75;;
65581;SDS011;52231;40.090;18.348;2023-07-09T00:29:49;14.55;;;6.90;;
65581;SDS011;52231;40.090;18.348;2023-07-09T00:32:20;16.92;;;7.22;;
65581;SDS011;52231;40.090;18.348;2023-07-09T00:34:48;15.15;;;6.47;;
65581;SDS011;52231;40.090;18.348;2023-07-09T00:37:20;12.95;;;7.03;;
65581;SDS011;52231;40.090;18.348;2023-07-09T00:39:53;14.05;;;6.60;;
65581;SDS011;52231;40.090;18.348;2023-07-09T00:42:21;15.80;;;6.30;;
65581;SDS011;52231;40.090;18.348;2023-07-09T00:44:53;13.80;;;7.00;;
65581;SDS011;52231;40.090;18.348;2023-07-09T00:47:26;13.23;;;6.00;;
65581;SDS011;52231;40.090;18.348;2023-07-09T00:50:20;14.93;;;7.15;;
65581;SDS011;52231;40.090;18.348;2023-07-09T00:53:05;15.25;;;6.97;;
65581;SDS011;52231;40.090;18.348;2023-07-09T00:55:54;13.45;;;6.03;;
65581;SDS011;52231;40.090;18.348;2023-07-09T00:58:29;14.82;;;6.38;;
65581;SDS011;52231;40.090;18.348;2023-07-09T01:01:00;16.02;;;6.40;;
65581;SDS011;52231;40.090;18.348;2023-07-09T01:06:08;12.93;;;6.50;;
65581;SDS011;52231;40.090;18.348;2023-07-09T01:08:39;14.80;;;7.05;;
65581;SDS011;52231;40.090;18.348;2023-07-09T01:11:18;14.20;;;6.70;;
65581;SDS011;52231;40.090;18.348;2023-07-09T01:13:51;12.32;;;6.38;;
65581;SDS011;52231;40.090;18.348;2023-07-09T01:16:25;12.30;;;6.40;;
65581;SDS011;52231;40.090;18.348;2023-07-09T01:19:17;15.35;;;7.03;;
65581;SDS011;52231;40.090;18.348;2023-07-09T01:21:58;13.45;;;6.85;;
65581;SDS011;52231;40.090;18.348;2023-07-09T01:27:15;14.52;;;5.97;;
65581;SDS011;52231;40.090;18.348;2023-07-09T01:29:45;14.77;;;6.95;;
65581;SDS011;52231;40.090;18.348;2023-07-09T01:32:17;21.10;;;7.05;;
65581;SDS011;52231;40.090;18.348;2023-07-09T01:34:47;15.35;;;7.13;;
65581;SDS011;52231;40.090;18.348;2023-07-09T01:37:17;12.95;;;7.00;;
65581;SDS011;52231;40.090;18.348;2023-07-09T01:39:49;13.65;;;6.95;;
65581;SDS011;52231;40.090;18.348;2023-07-09T01:42:20;14.55;;;7.40;;
65581;SDS011;52231;40.090;18.348;2023-07-09T01:44:51;15.00;;;7.15;;
65581;SDS011;52231;40.090;18.348;2023-07-09T01:47:21;13.55;;;7.25;;
65581;SDS011;52231;40.090;18.348;2023-07-09T01:49:51;14.18;;;6.88;;
65581;SDS011;52231;40.090;18.348;2023-07-09T01:52:25;13.18;;;6.80;;
65581;SDS011;52231;40.090;18.348;2023-07-09T01:54:56;14.32;;;7.05;;
65581;SDS011;52231;40.090;18.348;2023-07-09T01:57:26;16.52;;;7.45;;
65581;SDS011;52231;40.090;18.348;2023-07-09T02:00:05;13.77;;;6.45;;
65581;SDS011;52231;40.090;18.348;2023-07-09T02:02:41;13.40;;;6.57;;
65581;SDS011;52231;40.090;18.348;2023-07-09T02:05:14;17.13;;;6.53;;
65581;SDS011;52231;40.090;18.348;2023-07-09T02:07:45;14.18;;;6.40;;
65581;SDS011;52231;40.090;18.348;2023-07-09T02:10:15;14.02;;;6.60;;
65581;SDS011;52231;40.090;18.348;2023-07-09T02:12:44;13.05;;;5.85;;
65581;SDS011;52231;40.090;18.348;2023-07-09T02:15:13;19.30;;;6.57;;
65581;SDS011;52231;40.090;18.348;2023-07-09T02:17:43;18.95;;;7.53;;
65581;SDS011;52231;40.090;18.348;2023-07-09T02:20:12;16.70;;;6.57;;
65581;SDS011;52231;40.090;18.348;2023-07-09T02:22:41;13.25;;;7.22;;
65581;SDS011;52231;40.090;18.348;2023-07-09T02:25:10;15.00;;;6.43;;
65581;SDS011;52231;40.090;18.348;2023-07-09T02:27:38;15.70;;;6.32;;
65581;SDS011;52231;40.090;18.348;2023-07-09T02:30:07;13.68;;;7.22;;
65581;SDS011;52231;40.090;18.348;2023-07-09T02:32:35;16.02;;;6.68;;
65581;SDS011;52231;40.090;18.348;2023-07-09T02:35:04;14.52;;;6.60;;
65581;SDS011;52231;40.090;18.348;2023-07-09T02:37:33;14.40;;;6.75;;
65581;SDS011;52231;40.090;18.348;2023-07-09T02:42:31;13.07;;;6.32;;
65581;SDS011;52231;40.090;18.348;2023-07-09T02:44:59;14.27;;;6.80;;
65581;SDS011;52231;40.090;18.348;2023-07-09T02:47:30;13.85;;;6.97;;
65581;SDS011;52231;40.090;18.348;2023-07-09T02:50:00;13.63;;;7.55;;
65581;SDS011;52231;40.090;18.348;2023-07-09T02:52:30;15.60;;;7.22;;
65581;SDS011;52231;40.090;18.348;2023-07-09T02:54:58;14.73;;;7.03;;
65581;SDS011;52231;40.090;18.348;2023-07-09T02:57:26;14.98;;;7.28;;
65581;SDS011;52231;40.090;18.348;2023-07-09T03:02:23;14.20;;;7.00;;
65581;SDS011;52231;40.090;18.348;2023-07-09T03:04:52;12.63;;;6.85;;
65581;SDS011;52231;40.090;18.348;2023-07-09T03:09:48;15.70;;;7.47;;
65581;SDS011;52231;40.090;18.348;2023-07-09T03:12:16;16.08;;;7.10;;
65581;SDS011;52231;40.090;18.348;2023-07-09T03:14:47;14.50;;;6.72;;
65581;SDS011;52231;40.090;18.348;2023-07-09T03:17:16;14.75;;;7.00;;
65581;SDS011;52231;40.090;18.348;2023-07-09T03:19:45;13.95;;;6.65;;
65581;SDS011;52231;40.090;18.348;2023-07-09T03:24:41;15.20;;;6.15;;
65581;SDS011;52231;40.090;18.348;2023-07-09T03:29:37;12.13;;;5.88;;
65581;SDS011;52231;40.090;18.348;2023-07-09T03:32:07;14.90;;;6.32;;
65581;SDS011;52231;40.090;18.348;2023-07-09T03:34:35;13.27;;;6.63;;
65581;SDS011;52231;40.090;18.348;2023-07-09T03:37:03;13.65;;;6.10;;
65581;SDS011;52231;40.090;18.348;2023-07-09T03:39:33;13.02;;;6.28;;
65581;SDS011;52231;40.090;18.348;2023-07-09T03:42:01;14.60;;;6.15;;
65581;SDS011;52231;40.090;18.348;2023-07-09T03:44:30;15.20;;;6.20;;
65581;SDS011;52231;40.090;18.348;2023-07-09T03:49:26;15.10;;;6.13;;
65581;SDS011;52231;40.090;18.348;2023-07-09T03:51:54;13.60;;;6.70;;
65581;SDS011;52231;40.090;18.348;2023-07-09T03:54:22;12.07;;;6.43;;
65581;SDS011;52231;40.090;18.348;2023-07-09T03:56:51;14.05;;;6.95;;
65581;SDS011;52231;40.090;18.348;2023-07-09T03:59:19;14.38;;;6.28;;
65581;SDS011;52231;40.090;18.348;2023-07-09T04:01:47;12.50;;;5.75;;
65581;SDS011;52231;40.090;18.348;2023-07-09T04:04:15;15.80;;;6.32;;
65581;SDS011;52231;40.090;18.348;2023-07-09T04:06:47;14.10;;;6.40;;
65581;SDS011;52231;40.090;18.348;2023-07-09T04:09:16;14.70;;;6.43;;
65581;SDS011;52231;40.090;18.348;2023-07-09T04:11:44;13.73;;;6.45;;
65581;SDS011;52231;40.090;18.348;2023-07-09T04:16:40;12.27;;;6.30;;
65581;SDS011;52231;40.090;18.348;2023-07-09T04:21:36;16.67;;;6.47;;
65581;SDS011;52231;40.090;18.348;2023-07-09T04:24:05;11.80;;;5.60;;
65581;SDS011;52231;40.090;18.348;2023-07-09T04:26:33;13.98;;;5.95;;
65581;SDS011;52231;40.090;18.348;2023-07-09T04:29:02;11.25;;;5.70;;
65581;SDS011;52231;40.090;18.348;2023-07-09T04:31:31;11.93;;;5.35;;
65581;SDS011;52231;40.090;18.348;2023-07-09T04:34:00;12.05;;;5.07;;
65581;SDS011;52231;40.090;18.348;2023-07-09T04:36:28;13.95;;;5.07;;
65581;SDS011;52231;40.090;18.348;2023-07-09T04:38:56;13.00;;;5.55;;
65581;SDS011;52231;40.090;18.348;2023-07-09T04:41:25;11.20;;;5.28;;
65581;SDS011;52231;40.090;18.348;2023-07-09T04:43:53;13.73;;;5.82;;
65581;SDS011;52231;40.090;18.348;2023-07-09T04:46:21;14.80;;;5.30;;
65581;SDS011;52231;40.090;18.348;2023-07-09T04:48:49;10.35;;;4.60;;
65581;SDS011;52231;40.090;18.348;2023-07-09T04:51:17;11.27;;;4.78;;
65581;SDS011;52231;40.090;18.348;2023-07-09T04:53:46;11.20;;;5.05;;
65581;SDS011;52231;40.090;18.348;2023-07-09T04:56:14;14.27;;;4.55;;
65581;SDS011;52231;40.090;18.348;2023-07-09T05:01:10;11.80;;;4.63;;
65581;SDS011;52231;40.090;18.348;2023-07-09T05:03:38;11.27;;;4.35;;
65581;SDS011;52231;40.090;18.348;2023-07-09T05:06:06;10.90;;;4.72;;
65581;SDS011;52231;40.090;18.348;2023-07-09T05:08:35;12.95;;;4.97;;
65581;SDS011;52231;40.090;18.348;2023-07-09T05:11:03;11.80;;;5.18;;
65581;SDS011;52231;40.090;18.348;2023-07-09T05:13:33;8.65;;;4.57;;
65581;SDS011;52231;40.090;18.348;2023-07-09T05:16:02;9.65;;;5.00;;
65581;SDS011;52231;40.090;18.348;2023-07-09T05:18:31;13.85;;;5.30;;
65581;SDS011;52231;40.090;18.348;2023-07-09T05:20:59;11.02;;;5.05;;
65581;SDS011;52231;40.090;18.348;2023-07-09T05:23:27;10.63;;;4.57;;
65581;SDS011;52231;40.090;18.348;2023-07-09T05:25:58;11.77;;;5.07;;
65581;SDS011;52231;40.090;18.348;2023-07-09T05:28:29;11.68;;;4.60;;
65581;SDS011;52231;40.090;18.348;2023-07-09T05:30:58;12.90;;;5.57;;
65581;SDS011;52231;40.090;18.348;2023-07-09T05:33:27;11.75;;;5.05;;
65581;SDS011;52231;40.090;18.348;2023-07-09T05:35:55;10.45;;;5.50;;
65581;SDS011;52231;40.090;18.348;2023-07-09T05:38:24;14.18;;;4.95;;
65581;SDS011;52231;40.090;18.348;2023-07-09T05:41:02;11.80;;;4.72;;
65581;SDS011;52231;40.090;18.348;2023-07-09T05:43:31;10.95;;;4.78;;
65581;SDS011;52231;40.090;18.348;2023-07-09T05:46:04;13.85;;;4.55;;
65581;SDS011;52231;40.090;18.348;2023-07-09T05:48:33;11.98;;;4.22;;
65581;SDS011;52231;40.090;18.348;2023-07-09T05:51:01;9.95;;;4.60;;
65581;SDS011;52231;40.090;18.348;2023-07-09T05:53:30;12.40;;;4.80;;
65581;SDS011;52231;40.090;18.348;2023-07-09T05:55:59;10.68;;;4.30;;
65581;SDS011;52231;40.090;18.348;2023-07-09T05:58:28;10.73;;;4.50;;
65581;SDS011;52231;40.090;18.348;2023-07-09T06:00:56;10.82;;;4.18;;
65581;SDS011;52231;40.090;18.348;2023-07-09T06:03:25;9.80;;;4.15;;
65581;SDS011;52231;40.090;18.348;2023-07-09T06:05:55;11.93;;;4.18;;
65581;SDS011;52231;40.090;18.348;2023-07-09T06:08:24;8.20;;;3.92;;
65581;SDS011;52231;40.090;18.348;2023-07-09T06:10:58;12.18;;;4.43;;
65581;SDS011;52231;40.090;18.348;2023-07-09T06:13:28;10.55;;;4.50;;
65581;SDS011;52231;40.090;18.348;2023-07-09T06:15:58;9.80;;;4.45;;
65581;SDS011;52231;40.090;18.348;2023-07-09T06:18:28;10.32;;;4.25;;
65581;SDS011;52231;40.090;18.348;2023-07-09T06:20:58;10.18;;;4.53;;
65581;SDS011;52231;40.090;18.348;2023-07-09T06:23:28;9.43;;;4.38;;
65581;SDS011;52231;40.090;18.348;2023-07-09T06:25:57;10.07;;;4.13;;
65581;SDS011;52231;40.090;18.348;2023-07-09T06:28:26;9.13;;;3.70;;
65581;SDS011;52231;40.090;18.348;2023-07-09T06:30:57;7.78;;;3.75;;
65581;SDS011;52231;40.090;18.348;2023-07-09T06:33:25;12.05;;;3.75;;
65581;SDS011;52231;40.090;18.348;2023-07-09T06:35:58;8.93;;;3.67;;
65581;SDS011;52231;40.090;18.348;2023-07-09T06:38:28;9.02;;;3.42;;
65581;SDS011;52231;40.090;18.348;2023-07-09T06:40:57;12.20;;;3.72;;
65581;SDS011;52231;40.090;18.348;2023-07-09T06:43:25;9.65;;;4.10;;
65581;SDS011;52231;40.090;18.348;2023-07-09T06:45:55;9.07;;;4.32;;
65581;SDS011;52231;40.090;18.348;2023-07-09T06:48:26;18.45;;;8.15;;
65581;SDS011;52231;40.090;18.348;2023-07-09T06:50:55;12.10;;;4.40;;
65581;SDS011;52231;40.090;18.348;2023-07-09T06:53:25;10.52;;;3.90;;
65581;SDS011;52231;40.090;18.348;2023-07-09T06:55:56;11.80;;;4.13;;
65581;SDS011;52231;40.090;18.348;2023-07-09T06:58:27;11.00;;;4.00;;
65581;SDS011;52231;40.090;18.348;2023-07-09T07:00:56;9.82;;;3.50;;
65581;SDS011;52231;40.090;18.348;2023-07-09T07:03:24;11.32;;;3.90;;
65581;SDS011;52231;40.090;18.348;2023-07-09T07:05:53;8.52;;;3.47;;
65581;SDS011;52231;40.090;18.348;2023-07-09T07:08:22;11.68;;;3.85;;
65581;SDS011;52231;40.090;18.348;2023-07-09T07:10:55;9.07;;;3.70;;
65581;SDS011;52231;40.090;18.348;2023-07-09T07:13:36;9.45;;;4.00;;
65581;SDS011;52231;40.090;18.348;2023-07-09T07:16:07;8.82;;;3.67;;
65581;SDS011;52231;40.090;18.348;2023-07-09T07:18:37;10.95;;;3.92;;
65581;SDS011;52231;40.090;18.348;2023-07-09T07:21:06;9.80;;;3.85;;
65581;SDS011;52231;40.090;18.348;2023-07-09T07:23:34;9.20;;;3.25;;
65581;SDS011;52231;40.090;18.348;2023-07-09T07:26:02;10.05;;;3.70;;
65581;SDS011;52231;40.090;18.348;2023-07-09T07:28:33;8.05;;;3.30;;
65581;SDS011;52231;40.090;18.348;2023-07-09T07:31:06;8.63;;;3.63;;
65581;SDS011;52231;40.090;18.348;2023-07-09T07:33:37;10.18;;;3.58;;
65581;SDS011;52231;40.090;18.348;2023-07-09T07:36:07;7.95;;;3.85;;
65581;SDS011;52231;40.090;18.348;2023-07-09T07:38:40;9.35;;;3.63;;
65581;SDS011;52231;40.090;18.348;2023-07-09T07:41:08;10.43;;;3.70;;
65581;SDS011;52231;40.090;18.348;2023-07-09T07:43:36;7.90;;;3.42;;
65581;SDS011;52231;40.090;18.348;2023-07-09T07:46:06;8.40;;;3.42;;
65581;SDS011;52231;40.090;18.348;2023-07-09T07:48:35;10.82;;;4.18;;
65581;SDS011;52231;40.090;18.348;2023-07-09T07:51:04;8.02;;;3.60;;
65581;SDS011;52231;40.090;18.348;2023-07-09T07:53:32;8.50;;;3.33;;
65581;SDS011;52231;40.090;18.348;2023-07-09T07:56:00;9.77;;;3.65;;
65581;SDS011;52231;40.090;18.348;2023-07-09T07:58:30;9.75;;;3.20;;
65581;SDS011;52231;40.090;18.348;2023-07-09T08:00:59;9.82;;;3.88;;
65581;SDS011;52231;40.090;18.348;2023-07-09T08:03:28;9.23;;;3.83;;
65581;SDS011;52231;40.090;18.348;2023-07-09T08:05:56;12.05;;;3.90;;
65581;SDS011;52231;40.090;18.348;2023-07-09T08:08:26;9.30;;;3.30;;
65581;SDS011;52231;40.090;18.348;2023-07-09T08:10:59;9.52;;;3.53;;
65581;SDS011;52231;40.090;18.348;2023-07-09T08:13:36;9.75;;;3.83;;
65581;SDS011;52231;40.090;18.348;2023-07-09T08:16:05;7.85;;;3.65;;
65581;SDS011;52231;40.090;18.348;2023-07-09T08:18:35;11.15;;;3.63;;
65581;SDS011;52231;40.090;18.348;2023-07-09T08:21:03;8.20;;;3.30;;
65581;SDS011;52231;40.090;18.348;2023-07-09T08:23:32;8.63;;;3.70;;
65581;SDS011;52231;40.090;18.348;2023-07-09T08:26:00;10.23;;;3.88;;
65581;SDS011;52231;40.090;18.348;2023-07-09T08:28:30;7.65;;;3.28;;
65581;SDS011;52231;40.090;18.348;2023-07-09T08:30:59;7.45;;;3.28;;
65581;SDS011;52231;40.090;18.348;2023-07-09T08:33:27;8.02;;;3.80;;
65581;SDS011;52231;40.090;18.348;2023-07-09T08:35:55;9.95;;;3.90;;
65581;SDS011;52231;40.090;18.348;2023-07-09T08:38:24;8.32;;;3.22;;
65581;SDS011;52231;40.090;18.348;2023-07-09T08:40:59;8.68;;;3.65;;
65581;SDS011;52231;40.090;18.348;2023-07-09T08:49:21;9.88;;;3.63;;
65581;SDS011;52231;40.090;18.348;2023-07-09T08:52:00;10.30;;;3.50;;
65581;SDS011;52231;40.090;18.348;2023-07-09T08:54:31;9.88;;;3.70;;
65581;SDS011;52231;40.090;18.348;2023-07-09T08:57:09;8.88;;;3.50;;
65581;SDS011;52231;40.090;18.348;2023-07-09T08:59:49;11.00;;;3.38;;
65581;SDS011;52231;40.090;18.348;2023-07-09T09:02:35;7.75;;;3.10;;
65581;SDS011;52231;40.090;18.348;2023-07-09T09:05:09;8.77;;;3.65;;
65581;SDS011;52231;40.090;18.348;2023-07-09T09:07:44;9.10;;;4.07;;
65581;SDS011;52231;40.090;18.348;2023-07-09T09:10:40;7.28;;;3.40;;
65581;SDS011;52231;40.090;18.348;2023-07-09T09:13:17;7.93;;;3.10;;
65581;SDS011;52231;40.090;18.348;2023-07-09T09:15:50;8.98;;;3.30;;
65581;SDS011;52231;40.090;18.348;2023-07-09T09:20:49;8.27;;;3.40;;
65581;SDS011;52231;40.090;18.348;2023-07-09T09:26:45;6.57;;;3.40;;
65581;SDS011;52231;40.090;18.348;2023-07-09T09:29:19;8.75;;;3.75;;
65581;SDS011;52231;40.090;18.348;2023-07-09T09:31:48;10.00;;;3.65;;
65581;SDS011;52231;40.090;18.348;2023-07-09T09:34:26;7.53;;;3.38;;
65581;SDS011;52231;40.090;18.348;2023-07-09T09:36:58;9.25;;;3.95;;
65581;SDS011;52231;40.090;18.348;2023-07-09T09:39:26;10.10;;;3.95;;
65581;SDS011;52231;40.090;18.348;2023-07-09T09:41:56;10.57;;;4.55;;
65581;SDS011;52231;40.090;18.348;2023-07-09T09:44:27;14.10;;;8.20;;
65581;SDS011;52231;40.090;18.348;2023-07-09T09:46:56;7.18;;;3.42;;
65581;SDS011;52231;40.090;18.348;2023-07-09T09:49:29;9.63;;;3.90;;
65581;SDS011;52231;40.090;18.348;2023-07-09T09:52:01;9.95;;;3.75;;
65581;SDS011;52231;40.090;18.348;2023-07-09T09:54:30;7.85;;;3.80;;
65581;SDS011;52231;40.090;18.348;2023-07-09T09:56:59;10.82;;;4.65;;
65581;SDS011;52231;40.090;18.348;2023-07-09T09:59:31;8.13;;;3.70;;
65581;SDS011;52231;40.090;18.348;2023-07-09T10:02:01;9.93;;;4.10;;
65581;SDS011;52231;40.090;18.348;2023-07-09T10:07:08;9.50;;;3.85;;
65581;SDS011;52231;40.090;18.348;2023-07-09T10:09:45;9.35;;;3.88;;
65581;SDS011;52231;40.090;18.348;2023-07-09T10:14:51;8.20;;;3.70;;
65581;SDS011;52231;40.090;18.348;2023-07-09T10:25:42;9.05;;;3.90;;
65581;SDS011;52231;40.090;18.348;2023-07-09T10:34:17;11.05;;;4.05;;
65581;SDS011;52231;40.090;18.348;2023-07-09T10:39:41;7.70;;;3.63;;
65581;SDS011;52231;40.090;18.348;2023-07-09T10:42:24;7.43;;;3.25;;
65581;SDS011;52231;40.090;18.348;2023-07-09T10:44:57;7.55;;;3.58;;
65581;SDS011;52231;40.090;18.348;2023-07-09T10:47:36;9.35;;;3.80;;
65581;SDS011;52231;40.090;18.348;2023-07-09T10:50:31;8.85;;;3.65;;
65581;SDS011;52231;40.090;18.348;2023-07-09T10:53:14;8.85;;;3.97;;
65581;SDS011;52231;40.090;18.348;2023-07-09T10:56:05;9.52;;;3.53;;
65581;SDS011;52231;40.090;18.348;2023-07-09T11:01:38;9.65;;;4.30;;
65581;SDS011;52231;40.090;18.348;2023-07-09T11:04:20;8.23;;;3.90;;
65581;SDS011;52231;40.090;18.348;2023-07-09T11:06:59;10.32;;;5.50;;
65581;SDS011;52231;40.090;18.348;2023-07-09T11:09:34;9.23;;;4.70;;
65581;SDS011;52231;40.090;18.348;2023-07-09T11:12:08;9.63;;;4.60;;
65581;SDS011;52231;40.090;18.348;2023-07-09T11:14:59;10.52;;;4.22;;
65581;SDS011;52231;40.090;18.348;2023-07-09T11:17:43;8.57;;;4.00;;
65581;SDS011;52231;40.090;18.348;2023-07-09T11:20:33;9.65;;;4.60;;
65581;SDS011;52231;40.090;18.348;2023-07-09T11:23:05;9.90;;;4.13;;
65581;SDS011;52231;40.090;18.348;2023-07-09T11:25:44;9.18;;;3.85;;
65581;SDS011;52231;40.090;18.348;2023-07-09T11:28:17;8.75;;;4.00;;
65581;SDS011;52231;40.090;18.348;2023-07-09T11:31:06;9.50;;;4.00;;
65581;SDS011;52231;40.090;18.348;2023-07-09T11:34:19;10.55;;;3.63;;
65581;SDS011;52231;40.090;18.348;2023-07-09T11:36:46;8.25;;;3.53;;
65581;SDS011;52231;40.090;18.348;2023-07-09T11:39:30;11.88;;;4.80;;
65581;SDS011;52231;40.090;18.348;2023-07-09T11:42:55;10.68;;;4.60;;
65581;SDS011;52231;40.090;18.348;2023-07-09T11:45:23;8.25;;;3.60;;
65581;SDS011;52231;40.090;18.348;2023-07-09T11:50:52;11.05;;;4.43;;
65581;SDS011;52231;40.090;18.348;2023-07-09T11:55:58;7.38;;;3.45;;
65581;SDS011;52231;40.090;18.348;2023-07-09T11:58:26;9.07;;;3.58;;
65581;SDS011;52231;40.090;18.348;2023-07-09T12:00:55;9.98;;;3.75;;
65581;SDS011;52231;40.090;18.348;2023-07-09T12:03:26;9.50;;;3.65;;
65581;SDS011;52231;40.090;18.348;2023-07-09T12:06:01;11.30;;;4.00;;
65581;SDS011;52231;40.090;18.348;2023-07-09T12:08:41;10.98;;;4.03;;
65581;SDS011;52231;40.090;18.348;2023-07-09T12:13:52;9.82;;;3.90;;
65581;SDS011;52231;40.090;18.348;2023-07-09T12:16:23;9.55;;;3.80;;
65581;SDS011;52231;40.090;18.348;2023-07-09T12:18:53;6.93;;;3.55;;
65581;SDS011;52231;40.090;18.348;2023-07-09T12:21:22;9.23;;;3.78;;
65581;SDS011;52231;40.090;18.348;2023-07-09T12:23:53;9.23;;;3.53;;
65581;SDS011;52231;40.090;18.348;2023-07-09T12:26:23;8.32;;;3.75;;
65581;SDS011;52231;40.090;18.348;2023-07-09T12:28:56;8.13;;;3.88;;
65581;SDS011;52231;40.090;18.348;2023-07-09T12:31:27;8.00;;;3.80;;
65581;SDS011;52231;40.090;18.348;2023-07-09T12:33:58;8.93;;;3.67;;
65581;SDS011;52231;40.090;18.348;2023-07-09T12:36:27;8.00;;;3.65;;
65581;SDS011;52231;40.090;18.348;2023-07-09T12:38:56;10.45;;;3.95;;
65581;SDS011;52231;40.090;18.348;2023-07-09T12:41:38;10.05;;;3.83;;
65581;SDS011;52231;40.090;18.348;2023-07-09T12:44:26;8.23;;;3.67;;
65581;SDS011;52231;40.090;18.348;2023-07-09T12:46:59;8.07;;;3.75;;
65581;SDS011;52231;40.090;18.348;2023-07-09T12:49:30;10.52;;;4.22;;
65581;SDS011;52231;40.090;18.348;2023-07-09T12:52:23;8.15;;;3.20;;
65581;SDS011;52231;40.090;18.348;2023-07-09T12:54:55;6.88;;;3.42;;
65581;SDS011;52231;40.090;18.348;2023-07-09T12:57:28;8.25;;;3.45;;
65581;SDS011;52231;40.090;18.348;2023-07-09T12:59:58;7.95;;;3.30;;
65581;SDS011;52231;40.090;18.348;2023-07-09T13:02:27;9.40;;;3.70;;
65581;SDS011;52231;40.090;18.348;2023-07-09T13:05:00;8.90;;;3.80;;
65581;SDS011;52231;40.090;18.348;2023-07-09T13:07:33;7.18;;;3.33;;
65581;SDS011;52231;40.090;18.348;2023-07-09T13:10:27;11.05;;;3.42;;
65581;SDS011;52231;40.090;18.348;2023-07-09T13:13:01;9.63;;;3.40;;
65581;SDS011;52231;40.090;18.348;2023-07-09T13:18:10;9.35;;;3.42;;
65581;SDS011;52231;40.090;18.348;2023-07-09T13:20:41;9.27;;;3.40;;
65581;SDS011;52231;40.090;18.348;2023-07-09T13:23:14;9.80;;;3.35;;
65581;SDS011;52231;40.090;18.348;2023-07-09T13:25:44;8.77;;;3.50;;
65581;SDS011;52231;40.090;18.348;2023-07-09T13:28:15;9.88;;;3.75;;
65581;SDS011;52231;40.090;18.348;2023-07-09T13:30:45;9.18;;;3.70;;
65581;SDS011;52231;40.090;18.348;2023-07-09T13:33:14;9.00;;;3.42;;
65581;SDS011;52231;40.090;18.348;2023-07-09T13:35:45;9.68;;;3.78;;
65581;SDS011;52231;40.090;18.348;2023-07-09T13:38:15;11.10;;;3.78;;
65581;SDS011;52231;40.090;18.348;2023-07-09T13:40:45;8.35;;;3.50;;
65581;SDS011;52231;40.090;18.348;2023-07-09T13:43:23;8.90;;;3.60;;
65581;SDS011;52231;40.090;18.348;2023-07-09T13:45:59;11.48;;;3.33;;
65581;SDS011;52231;40.090;18.348;2023-07-09T13:48:30;8.60;;;3.38;;
65581;SDS011;52231;40.090;18.348;2023-07-09T13:51:00;7.78;;;3.55;;
65581;SDS011;52231;40.090;18.348;2023-07-09T13:53:29;7.57;;;3.25;;
65581;SDS011;52231;40.090;18.348;2023-07-09T13:55:59;6.63;;;3.40;;
65581;SDS011;52231;40.090;18.348;2023-07-09T13:58:27;10.15;;;4.00;;
65581;SDS011;52231;40.090;18.348;2023-07-09T14:00:59;10.13;;;3.83;;
65581;SDS011;52231;40.090;18.348;2023-07-09T14:03:36;8.02;;;3.30;;
65581;SDS011;52231;40.090;18.348;2023-07-09T14:06:04;11.45;;;3.65;;
65581;SDS011;52231;40.090;18.348;2023-07-09T14:08:33;11.00;;;3.80;;
65581;SDS011;52231;40.090;18.348;2023-07-09T14:11:01;9.02;;;3.63;;
65581;SDS011;52231;40.090;18.348;2023-07-09T14:13:29;7.95;;;3.33;;
65581;SDS011;52231;40.090;18.348;2023-07-09T14:15:59;7.75;;;3.28;;
65581;SDS011;52231;40.090;18.348;2023-07-09T14:18:30;10.52;;;3.40;;
65581;SDS011;52231;40.090;18.348;2023-07-09T14:20:59;10.38;;;3.80;;
65581;SDS011;52231;40.090;18.348;2023-07-09T14:23:27;7.65;;;3.40;;
65581;SDS011;52231;40.090;18.348;2023-07-09T14:25:55;8.07;;;3.60;;
65581;SDS011;52231;40.090;18.348;2023-07-09T14:28:23;8.45;;;3.28;;
65581;SDS011;52231;40.090;18.348;2023-07-09T14:30:52;8.55;;;3.40;;
65581;SDS011;52231;40.090;18.348;2023-07-09T14:33:21;11.35;;;3.72;;
65581;SDS011;52231;40.090;18.348;2023-07-09T14:35:49;7.38;;;3.38;;
65581;SDS011;52231;40.090;18.348;2023-07-09T14:38:19;8.65;;;3.33;;
65581;SDS011;52231;40.090;18.348;2023-07-09T14:40:51;9.65;;;3.70;;
65581;SDS011;52231;40.090;18.348;2023-07-09T14:43:21;11.40;;;3.45;;
65581;SDS011;52231;40.090;18.348;2023-07-09T14:45:49;7.47;;;3.47;;
65581;SDS011;52231;40.090;18.348;2023-07-09T14:48:19;8.48;;;3.70;;
65581;SDS011;52231;40.090;18.348;2023-07-09T14:50:48;9.48;;;3.72;;
65581;SDS011;52231;40.090;18.348;2023-07-09T14:53:25;8.65;;;3.53;;
65581;SDS011;52231;40.090;18.348;2023-07-09T14:55:54;7.38;;;3.05;;
65581;SDS011;52231;40.090;18.348;2023-07-09T14:58:23;8.85;;;3.58;;
65581;SDS011;52231;40.090;18.348;2023-07-09T15:00:52;9.18;;;3.38;;
65581;SDS011;52231;40.090;18.348;2023-07-09T15:03:22;7.97;;;3.03;;
65581;SDS011;52231;40.090;18.348;2023-07-09T15:05:53;8.27;;;3.22;;
65581;SDS011;52231;40.090;18.348;2023-07-09T15:08:24;9.07;;;3.40;;
65581;SDS011;52231;40.090;18.348;2023-07-09T15:10:53;10.43;;;3.60;;
65581;SDS011;52231;40.090;18.348;2023-07-09T15:15:59;9.15;;;3.38;;
65581;SDS011;52231;40.090;18.348;2023-07-09T15:18:27;9.30;;;3.33;;
65581;SDS011;52231;40.090;18.348;2023-07-09T15:20:56;6.90;;;3.00;;
65581;SDS011;52231;40.090;18.348;2023-07-09T15:23:26;8.32;;;3.40;;
65581;SDS011;52231;40.090;18.348;2023-07-09T15:25:55;8.90;;;3.47;;
65581;SDS011;52231;40.090;18.348;2023-07-09T15:28:24;10.07;;;2.83;;
65581;SDS011;52231;40.090;18.348;2023-07-09T15:30:52;8.93;;;3.42;;
65581;SDS011;52231;40.090;18.348;2023-07-09T15:33:21;9.07;;;3.20;;
65581;SDS011;52231;40.090;18.348;2023-07-09T15:35:49;8.60;;;2.85;;
65581;SDS011;52231;40.090;18.348;2023-07-09T15:38:21;8.30;;;2.85;;
65581;SDS011;52231;40.090;18.348;2023-07-09T15:40:55;11.82;;;3.47;;
65581;SDS011;52231;40.090;18.348;2023-07-09T15:43:24;7.82;;;2.95;;
65581;SDS011;52231;40.090;18.348;2023-07-09T15:45:54;8.05;;;3.15;;
65581;SDS011;52231;40.090;18.348;2023-07-09T15:48:25;8.13;;;2.95;;
65581;SDS011;52231;40.090;18.348;2023-07-09T15:50:59;6.47;;;3.10;;
65581;SDS011;52231;40.090;18.348;2023-07-09T15:53:29;7.70;;;2.95;;
65581;SDS011;52231;40.090;18.348;2023-07-09T15:55:58;9.20;;;3.40;;
65581;SDS011;52231;40.090;18.348;2023-07-09T15:58:37;13.90;;;3.05;;
65581;SDS011;52231;40.090;18.348;2023-07-09T16:01:10;9.98;;;3.10;;
65581;SDS011;52231;40.090;18.348;2023-07-09T16:03:45;9.50;;;3.28;;
65581;SDS011;52231;40.090;18.348;2023-07-09T16:06:16;9.77;;;3.40;;
65581;SDS011;52231;40.090;18.348;2023-07-09T16:08:45;8.10;;;3.20;;
65581;SDS011;52231;40.090;18.348;2023-07-09T16:11:14;7.57;;;2.97;;
65581;SDS011;52231;40.090;18.348;2023-07-09T16:16:16;8.65;;;3.10;;
65581;SDS011;52231;40.090;18.348;2023-07-09T16:18:47;8.77;;;2.97;;
65581;SDS011;52231;40.090;18.348;2023-07-09T16:21:26;8.07;;;3.42;;
65581;SDS011;52231;40.090;18.348;2023-07-09T16:23:57;9.43;;;3.30;;
65581;SDS011;52231;40.090;18.348;2023-07-09T16:26:29;7.57;;;3.20;;